sensor_id;sensor_type;location;lat;lon;timestamp;temperature;humidity
2002;DHT22;1003;48.002;7.788;2023-04-25T00:00:05;10.00;99.90
2002;DHT22;1003;48.002;7.788;2023-04-25T00:02:34;9.90;99.90
2002;DHT22;1003;48.002;7.788;2023-04-25T00:05:01;9.90;99.90
2002;DHT22;1003;48.002;7.788;2023-04-25T00:07:29;9.80;99.90
2002;DHT22;1003;48.002;7.788;2023-04-25T00:09:56;9.70;99.90
2002;DHT22;1003;48.002;7.788;2023-04-25T00:12:25;9.70;99.90
2002;DHT22;1003;48.002;7.788;2023-04-25T00:14:53;9.60;99.90
2002;DHT22;1003;48.002;7.788;2023-04-25T00:17:22;9.60;99.90
2002;DHT22;1003;48.002;7.788;2023-04-25T00:19:50;9.50;99.90
2002;DHT22;1003;48.002;7.788;2023-04-25T00:22:17;9.60;99.90
2002;DHT22;1003;48.002;7.788;2023-04-25T00:24:44;9.60;99.90
2002;DHT22;1003;48.002;7.788;2023-04-25T00:27:11;9.50;99.90
2002;DHT22;1003;48.002;7.788;2023-04-25T00:29:39;9.50;99.90
2002;DHT22;1003;48.002;7.788;2023-04-25T00:32:06;9.50;99.90
2002;DHT22;1003;48.002;7.788;2023-04-25T00:34:33;9.40;99.90
2002;DHT22;1003;48.002;7.788;2023-04-25T00:37:00;9.40;99.90
2002;DHT22;1003;48.002;7.788;2023-04-25T00:39:28;9.30;99.90
2002;DHT22;1003;48.002;7.788;2023-04-25T00:41:55;9.30;99.90
2002;DHT22;1003;48.002;7.788;2023-04-25T00:44:22;9.20;99.90
2002;DHT22;1003;48.002;7.788;2023-04-25T00:46:54;9.30;99.90
2002;DHT22;1003;48.002;7.788;2023-04-25T00:49:21;9.20;99.90
2002;DHT22;1003;48.002;7.788;2023-04-25T00:51:48;9.10;99.90
2002;DHT22;1003;48.002;7.788;2023-04-25T00:54:16;9.10;99.90
2002;DHT22;1003;48.002;7.788;2023-04-25T00:56:43;9.00;99.90
2002;DHT22;1003;48.002;7.788;2023-04-25T00:59:10;8.90;99.90
2002;DHT22;1003;48.002;7.788;2023-04-25T01:01:39;8.90;99.90
2002;DHT22;1003;48.002;7.788;2023-04-25T01:04:08;8.80;99.90
2002;DHT22;1003;48.002;7.788;2023-04-25T01:06:35;8.80;99.90
2002;DHT22;1003;48.002;7.788;2023-04-25T01:09:04;8.70;99.90
2002;DHT22;1003;48.002;7.788;2023-04-25T01:11:31;8.60;99.90
2002;DHT22;1003;48.002;7.788;2023-04-25T01:13:58;8.60;99.90
2002;DHT22;1003;48.002;7.788;2023-04-25T01:16:25;8.50;99.90
2002;DHT22;1003;48.002;7.788;2023-04-25T01:18:54;8.50;99.90
2002;DHT22;1003;48.002;7.788;2023-04-25T01:21:22;8.40;99.90
2002;DHT22;1003;48.002;7.788;2023-04-25T01:23:53;8.40;99.90
2002;DHT22;1003;48.002;7.788;2023-04-25T01:26:21;8.30;99.90
2002;DHT22;1003;48.002;7.788;2023-04-25T01:28:49;8.20;99.90
2002;DHT22;1003;48.002;7.788;2023-04-25T01:31:17;8.20;99.90
2002;DHT22;1003;48.002;7.788;2023-04-25T01:33:45;8.10;99.90
2002;DHT22;1003;48.002;7.788;2023-04-25T01:36:14;8.10;99.90
2002;DHT22;1003;48.002;7.788;2023-04-25T01:38:43;8.10;99.90
2002;DHT22;1003;48.002;7.788;2023-04-25T01:41:13;8.20;99.90
2002;DHT22;1003;48.002;7.788;2023-04-25T01:43:40;8.20;99.90
2002;DHT22;1003;48.002;7.788;2023-04-25T01:46:07;8.20;99.90
2002;DHT22;1003;48.002;7.788;2023-04-25T01:48:34;8.30;99.90
2002;DHT22;1003;48.002;7.788;2023-04-25T01:51:02;8.30;99.90
2002;DHT22;1003;48.002;7.788;2023-04-25T01:53:29;8.30;99.90
2002;DHT22;1003;48.002;7.788;2023-04-25T01:55:58;8.30;99.90
2002;DHT22;1003;48.002;7.788;2023-04-25T01:58:25;8.40;99.90
2002;DHT22;1003;48.002;7.788;2023-04-25T02:00:52;8.40;99.90
2002;DHT22;1003;48.002;7.788;2023-04-25T02:03:19;8.40;99.90
2002;DHT22;1003;48.002;7.788;2023-04-25T02:05:46;8.50;99.90
2002;DHT22;1003;48.002;7.788;2023-04-25T02:08:13;8.60;99.90
2002;DHT22;1003;48.002;7.788;2023-04-25T02:10:40;8.60;99.90
2002;DHT22;1003;48.002;7.788;2023-04-25T02:13:09;8.60;99.90
2002;DHT22;1003;48.002;7.788;2023-04-25T02:15:36;8.60;99.90
2002;DHT22;1003;48.002;7.788;2023-04-25T02:18:03;8.60;99.90
2002;DHT22;1003;48.002;7.788;2023-04-25T02:20:32;8.60;99.90
2002;DHT22;1003;48.002;7.788;2023-04-25T02:22:59;8.70;99.90
2002;DHT22;1003;48.002;7.788;2023-04-25T02:25:26;8.80;99.90
2002;DHT22;1003;48.002;7.788;2023-04-25T02:27:53;8.80;99.90
2002;DHT22;1003;48.002;7.788;2023-04-25T02:30:22;8.80;99.90
2002;DHT22;1003;48.002;7.788;2023-04-25T02:32:49;8.80;99.90
2002;DHT22;1003;48.002;7.788;2023-04-25T02:35:16;8.80;99.90
2002;DHT22;1003;48.002;7.788;2023-04-25T02:37:43;8.80;99.90
2002;DHT22;1003;48.002;7.788;2023-04-25T02:40:10;8.90;99.90
2002;DHT22;1003;48.002;7.788;2023-04-25T02:42:37;8.90;99.90
2002;DHT22;1003;48.002;7.788;2023-04-25T02:45:05;8.90;99.90
2002;DHT22;1003;48.002;7.788;2023-04-25T02:47:34;8.90;99.90
2002;DHT22;1003;48.002;7.788;2023-04-25T02:50:01;8.90;99.90
2002;DHT22;1003;48.002;7.788;2023-04-25T02:52:29;8.90;99.90
2002;DHT22;1003;48.002;7.788;2023-04-25T02:54:56;8.90;99.90
2002;DHT22;1003;48.002;7.788;2023-04-25T02:57:23;8.90;99.90
2002;DHT22;1003;48.002;7.788;2023-04-25T02:59:50;8.80;99.90
2002;DHT22;1003;48.002;7.788;2023-04-25T03:02:17;8.80;99.90
2002;DHT22;1003;48.002;7.788;2023-04-25T03:04:45;8.80;99.90
2002;DHT22;1003;48.002;7.788;2023-04-25T03:07:13;8.80;99.90
2002;DHT22;1003;48.002;7.788;2023-04-25T03:09:40;8.90;99.90
2002;DHT22;1003;48.002;7.788;2023-04-25T03:12:07;8.90;99.90
2002;DHT22;1003;48.002;7.788;2023-04-25T03:14:34;8.90;99.90
2002;DHT22;1003;48.002;7.788;2023-04-25T03:17:01;8.90;99.90
2002;DHT22;1003;48.002;7.788;2023-04-25T03:19:28;8.90;99.90
2002;DHT22;1003;48.002;7.788;2023-04-25T03:21:57;8.90;99.90
2002;DHT22;1003;48.002;7.788;2023-04-25T03:24:24;8.80;99.90
2002;DHT22;1003;48.002;7.788;2023-04-25T03:26:52;8.90;99.90
2002;DHT22;1003;48.002;7.788;2023-04-25T03:29:19;8.90;99.90
2002;DHT22;1003;48.002;7.788;2023-04-25T03:31:49;8.90;99.90
2002;DHT22;1003;48.002;7.788;2023-04-25T03:34:16;8.80;99.90
2002;DHT22;1003;48.002;7.788;2023-04-25T03:36:43;8.90;99.90
2002;DHT22;1003;48.002;7.788;2023-04-25T03:39:12;9.00;99.90
2002;DHT22;1003;48.002;7.788;2023-04-25T03:41:39;9.10;99.90
2002;DHT22;1003;48.002;7.788;2023-04-25T03:44:06;9.10;99.90
2002;DHT22;1003;48.002;7.788;2023-04-25T03:46:33;9.00;99.90
2002;DHT22;1003;48.002;7.788;2023-04-25T03:49:00;8.80;99.90
2002;DHT22;1003;48.002;7.788;2023-04-25T03:51:28;8.70;99.90
2002;DHT22;1003;48.002;7.788;2023-04-25T03:53:56;8.70;99.90
2002;DHT22;1003;48.002;7.788;2023-04-25T03:56:24;8.60;99.90
2002;DHT22;1003;48.002;7.788;2023-04-25T03:58:51;8.40;99.90
2002;DHT22;1003;48.002;7.788;2023-04-25T04:01:18;8.30;99.90
2002;DHT22;1003;48.002;7.788;2023-04-25T04:03:45;8.10;99.90
2002;DHT22;1003;48.002;7.788;2023-04-25T04:06:12;8.00;99.90
2002;DHT22;1003;48.002;7.788;2023-04-25T04:08:40;7.90;99.90
2002;DHT22;1003;48.002;7.788;2023-04-25T04:11:07;7.90;99.90
2002;DHT22;1003;48.002;7.788;2023-04-25T04:13:35;8.00;99.90
2002;DHT22;1003;48.002;7.788;2023-04-25T04:16:03;7.90;99.90
2002;DHT22;1003;48.002;7.788;2023-04-25T04:18:30;7.90;99.90
2002;DHT22;1003;48.002;7.788;2023-04-25T04:20:58;7.90;99.90
2002;DHT22;1003;48.002;7.788;2023-04-25T04:23:25;8.00;99.90
2002;DHT22;1003;48.002;7.788;2023-04-25T04:25:53;8.10;99.90
2002;DHT22;1003;48.002;7.788;2023-04-25T04:28:21;8.10;99.90
2002;DHT22;1003;48.002;7.788;2023-04-25T04:30:50;8.20;99.90
2002;DHT22;1003;48.002;7.788;2023-04-25T04:33:18;8.20;99.90
2002;DHT22;1003;48.002;7.788;2023-04-25T04:35:46;8.30;99.90
2002;DHT22;1003;48.002;7.788;2023-04-25T04:38:14;8.30;99.90
2002;DHT22;1003;48.002;7.788;2023-04-25T04:40:41;8.30;99.90
2002;DHT22;1003;48.002;7.788;2023-04-25T04:43:08;8.30;99.90
2002;DHT22;1003;48.002;7.788;2023-04-25T04:45:36;8.40;99.90
2002;DHT22;1003;48.002;7.788;2023-04-25T04:48:05;8.40;99.90
2002;DHT22;1003;48.002;7.788;2023-04-25T04:50:33;8.40;99.90
2002;DHT22;1003;48.002;7.788;2023-04-25T04:53:02;8.40;99.90
2002;DHT22;1003;48.002;7.788;2023-04-25T04:55:29;8.40;99.90
2002;DHT22;1003;48.002;7.788;2023-04-25T04:57:56;8.50;99.90
2002;DHT22;1003;48.002;7.788;2023-04-25T05:00:23;8.50;99.90
2002;DHT22;1003;48.002;7.788;2023-04-25T05:02:50;8.50;99.90
2002;DHT22;1003;48.002;7.788;2023-04-25T05:05:18;8.50;99.90
2002;DHT22;1003;48.002;7.788;2023-04-25T05:07:45;8.50;99.90
2002;DHT22;1003;48.002;7.788;2023-04-25T05:10:13;8.50;99.90
2002;DHT22;1003;48.002;7.788;2023-04-25T05:12:40;8.60;99.90
2002;DHT22;1003;48.002;7.788;2023-04-25T05:15:07;8.60;99.90
2002;DHT22;1003;48.002;7.788;2023-04-25T05:17:34;8.60;99.90
2002;DHT22;1003;48.002;7.788;2023-04-25T05:20:02;8.70;99.90
2002;DHT22;1003;48.002;7.788;2023-04-25T05:22:32;8.70;99.90
2002;DHT22;1003;48.002;7.788;2023-04-25T05:24:59;8.70;99.90
2002;DHT22;1003;48.002;7.788;2023-04-25T05:27:26;8.70;99.90
2002;DHT22;1003;48.002;7.788;2023-04-25T05:29:53;8.60;99.90
2002;DHT22;1003;48.002;7.788;2023-04-25T05:32:20;8.50;99.90
2002;DHT22;1003;48.002;7.788;2023-04-25T05:34:47;8.50;99.90
2002;DHT22;1003;48.002;7.788;2023-04-25T05:37:14;8.40;99.90
2002;DHT22;1003;48.002;7.788;2023-04-25T05:39:43;8.40;99.90
2002;DHT22;1003;48.002;7.788;2023-04-25T05:42:10;8.30;99.90
2002;DHT22;1003;48.002;7.788;2023-04-25T05:44:37;8.30;99.90
2002;DHT22;1003;48.002;7.788;2023-04-25T05:47:04;8.20;99.90
2002;DHT22;1003;48.002;7.788;2023-04-25T05:49:31;8.00;99.90
2002;DHT22;1003;48.002;7.788;2023-04-25T05:51:58;7.90;99.90
2002;DHT22;1003;48.002;7.788;2023-04-25T05:54:25;7.90;99.90
2002;DHT22;1003;48.002;7.788;2023-04-25T05:56:53;7.80;99.90
2002;DHT22;1003;48.002;7.788;2023-04-25T05:59:20;7.70;99.90
2002;DHT22;1003;48.002;7.788;2023-04-25T06:01:47;7.60;99.90
2002;DHT22;1003;48.002;7.788;2023-04-25T06:04:14;7.60;99.90
2002;DHT22;1003;48.002;7.788;2023-04-25T06:06:41;7.50;99.90
2002;DHT22;1003;48.002;7.788;2023-04-25T06:09:08;7.50;99.90
2002;DHT22;1003;48.002;7.788;2023-04-25T06:11:35;7.50;99.90
2002;DHT22;1003;48.002;7.788;2023-04-25T06:14:04;7.40;99.90
2002;DHT22;1003;48.002;7.788;2023-04-25T06:16:31;7.40;99.90
2002;DHT22;1003;48.002;7.788;2023-04-25T06:18:57;7.40;99.90
2002;DHT22;1003;48.002;7.788;2023-04-25T06:21:24;7.30;99.90
2002;DHT22;1003;48.002;7.788;2023-04-25T06:23:52;7.30;99.90
2002;DHT22;1003;48.002;7.788;2023-04-25T06:26:19;7.30;99.90
2002;DHT22;1003;48.002;7.788;2023-04-25T06:28:46;7.40;99.90
2002;DHT22;1003;48.002;7.788;2023-04-25T06:31:15;7.40;99.90
2002;DHT22;1003;48.002;7.788;2023-04-25T06:33:42;7.40;99.90
2002;DHT22;1003;48.002;7.788;2023-04-25T06:36:09;7.40;99.90
2002;DHT22;1003;48.002;7.788;2023-04-25T06:38:36;7.40;99.90
2002;DHT22;1003;48.002;7.788;2023-04-25T06:41:03;7.50;99.90
2002;DHT22;1003;48.002;7.788;2023-04-25T06:43:30;7.50;99.90
2002;DHT22;1003;48.002;7.788;2023-04-25T06:45:59;7.50;99.90
2002;DHT22;1003;48.002;7.788;2023-04-25T06:48:28;7.60;99.90
2002;DHT22;1003;48.002;7.788;2023-04-25T06:50:55;7.70;99.90
2002;DHT22;1003;48.002;7.788;2023-04-25T06:53:22;7.70;99.90
2002;DHT22;1003;48.002;7.788;2023-04-25T06:55:49;7.80;99.90
2002;DHT22;1003;48.002;7.788;2023-04-25T06:58:16;7.80;99.90
2002;DHT22;1003;48.002;7.788;2023-04-25T07:00:43;7.80;99.90
2002;DHT22;1003;48.002;7.788;2023-04-25T07:03:10;7.80;99.90
2002;DHT22;1003;48.002;7.788;2023-04-25T07:05:39;7.70;99.90
2002;DHT22;1003;48.002;7.788;2023-04-25T07:08:06;7.70;99.90
2002;DHT22;1003;48.002;7.788;2023-04-25T07:10:33;7.70;99.90
2002;DHT22;1003;48.002;7.788;2023-04-25T07:13:00;7.80;99.90
2002;DHT22;1003;48.002;7.788;2023-04-25T07:15:27;7.80;99.90
2002;DHT22;1003;48.002;7.788;2023-04-25T07:17:54;7.80;99.90
2002;DHT22;1003;48.002;7.788;2023-04-25T07:20:21;7.80;99.90
2002;DHT22;1003;48.002;7.788;2023-04-25T07:22:50;7.80;99.90
2002;DHT22;1003;48.002;7.788;2023-04-25T07:25:17;7.90;99.90
2002;DHT22;1003;48.002;7.788;2023-04-25T07:27:44;7.90;99.90
2002;DHT22;1003;48.002;7.788;2023-04-25T07:30:12;7.90;99.90
2002;DHT22;1003;48.002;7.788;2023-04-25T07:32:39;7.90;99.90
2002;DHT22;1003;48.002;7.788;2023-04-25T07:35:07;7.90;99.90
2002;DHT22;1003;48.002;7.788;2023-04-25T07:37:34;8.00;99.90
2002;DHT22;1003;48.002;7.788;2023-04-25T07:40:03;7.90;99.90
2002;DHT22;1003;48.002;7.788;2023-04-25T07:42:33;8.00;99.90
2002;DHT22;1003;48.002;7.788;2023-04-25T07:45:00;8.10;99.90
2002;DHT22;1003;48.002;7.788;2023-04-25T07:47:28;8.10;99.90
2002;DHT22;1003;48.002;7.788;2023-04-25T07:49:55;8.20;99.90
2002;DHT22;1003;48.002;7.788;2023-04-25T07:52:23;8.30;99.90
2002;DHT22;1003;48.002;7.788;2023-04-25T07:54:50;8.40;99.90
2002;DHT22;1003;48.002;7.788;2023-04-25T07:57:19;8.50;99.90
2002;DHT22;1003;48.002;7.788;2023-04-25T07:59:46;8.60;99.90
2002;DHT22;1003;48.002;7.788;2023-04-25T08:02:13;8.70;99.90
2002;DHT22;1003;48.002;7.788;2023-04-25T08:04:40;8.90;99.90
2002;DHT22;1003;48.002;7.788;2023-04-25T08:07:07;9.00;99.90
2002;DHT22;1003;48.002;7.788;2023-04-25T08:09:35;9.20;99.90
2002;DHT22;1003;48.002;7.788;2023-04-25T08:12:02;9.30;99.90
2002;DHT22;1003;48.002;7.788;2023-04-25T08:14:31;9.40;99.90
2002;DHT22;1003;48.002;7.788;2023-04-25T08:17:01;9.60;99.90
2002;DHT22;1003;48.002;7.788;2023-04-25T08:19:29;9.60;99.90
2002;DHT22;1003;48.002;7.788;2023-04-25T08:21:56;9.50;99.90
2002;DHT22;1003;48.002;7.788;2023-04-25T08:24:23;9.40;99.90
2002;DHT22;1003;48.002;7.788;2023-04-25T08:26:51;9.40;99.90
2002;DHT22;1003;48.002;7.788;2023-04-25T08:29:18;9.40;99.90
2002;DHT22;1003;48.002;7.788;2023-04-25T08:31:47;9.30;99.90
2002;DHT22;1003;48.002;7.788;2023-04-25T08:34:14;9.20;99.90
2002;DHT22;1003;48.002;7.788;2023-04-25T08:36:41;9.10;99.90
2002;DHT22;1003;48.002;7.788;2023-04-25T08:39:08;9.10;99.90
2002;DHT22;1003;48.002;7.788;2023-04-25T08:41:37;9.20;99.90
2002;DHT22;1003;48.002;7.788;2023-04-25T08:44:05;9.10;99.90
2002;DHT22;1003;48.002;7.788;2023-04-25T08:46:34;9.20;99.90
2002;DHT22;1003;48.002;7.788;2023-04-25T08:49:07;9.10;99.90
2002;DHT22;1003;48.002;7.788;2023-04-25T08:51:38;9.10;99.90
2002;DHT22;1003;48.002;7.788;2023-04-25T08:54:11;9.10;99.90
2002;DHT22;1003;48.002;7.788;2023-04-25T08:56:44;9.10;99.90
2002;DHT22;1003;48.002;7.788;2023-04-25T08:59:13;9.20;99.90
2002;DHT22;1003;48.002;7.788;2023-04-25T09:01:41;9.20;99.90
2002;DHT22;1003;48.002;7.788;2023-04-25T09:04:09;9.40;99.90
2002;DHT22;1003;48.002;7.788;2023-04-25T09:06:37;9.40;99.90
2002;DHT22;1003;48.002;7.788;2023-04-25T09:09:06;9.40;99.90
2002;DHT22;1003;48.002;7.788;2023-04-25T09:11:35;9.40;99.90
2002;DHT22;1003;48.002;7.788;2023-04-25T09:14:13;9.40;99.90
2002;DHT22;1003;48.002;7.788;2023-04-25T09:16:59;9.60;99.90
2002;DHT22;1003;48.002;7.788;2023-04-25T09:19:30;9.60;99.90
2002;DHT22;1003;48.002;7.788;2023-04-25T09:22:02;9.70;99.90
2002;DHT22;1003;48.002;7.788;2023-04-25T09:24:35;9.80;99.90
2002;DHT22;1003;48.002;7.788;2023-04-25T09:27:04;9.80;99.90
2002;DHT22;1003;48.002;7.788;2023-04-25T09:29:32;10.10;99.90
2002;DHT22;1003;48.002;7.788;2023-04-25T09:32:11;10.40;99.90
2002;DHT22;1003;48.002;7.788;2023-04-25T09:34:44;10.90;99.90
2002;DHT22;1003;48.002;7.788;2023-04-25T09:37:18;11.00;99.90
2002;DHT22;1003;48.002;7.788;2023-04-25T09:39:47;11.30;99.90
2002;DHT22;1003;48.002;7.788;2023-04-25T09:42:16;11.40;99.90
2002;DHT22;1003;48.002;7.788;2023-04-25T09:44:44;11.80;99.90
2002;DHT22;1003;48.002;7.788;2023-04-25T09:47:14;12.10;99.90
2002;DHT22;1003;48.002;7.788;2023-04-25T09:49:44;12.30;99.90
2002;DHT22;1003;48.002;7.788;2023-04-25T09:52:15;12.60;99.90
2002;DHT22;1003;48.002;7.788;2023-04-25T09:54:43;13.10;99.90
2002;DHT22;1003;48.002;7.788;2023-04-25T09:57:12;13.40;99.90
2002;DHT22;1003;48.002;7.788;2023-04-25T09:59:45;13.60;99.90
2002;DHT22;1003;48.002;7.788;2023-04-25T10:02:14;13.60;99.90
2002;DHT22;1003;48.002;7.788;2023-04-25T10:04:48;13.30;99.90
2002;DHT22;1003;48.002;7.788;2023-04-25T10:07:18;13.10;99.90
2002;DHT22;1003;48.002;7.788;2023-04-25T10:09:48;13.20;99.90
2002;DHT22;1003;48.002;7.788;2023-04-25T10:12:16;13.30;99.90
2002;DHT22;1003;48.002;7.788;2023-04-25T10:14:44;13.50;99.90
2002;DHT22;1003;48.002;7.788;2023-04-25T10:17:14;13.90;99.90
2002;DHT22;1003;48.002;7.788;2023-04-25T10:19:41;13.90;99.90
2002;DHT22;1003;48.002;7.788;2023-04-25T10:22:14;14.30;99.90
2002;DHT22;1003;48.002;7.788;2023-04-25T10:24:47;14.50;99.90
2002;DHT22;1003;48.002;7.788;2023-04-25T10:27:15;14.50;99.90
2002;DHT22;1003;48.002;7.788;2023-04-25T10:29:42;14.70;99.90
2002;DHT22;1003;48.002;7.788;2023-04-25T10:32:10;14.50;99.90
2002;DHT22;1003;48.002;7.788;2023-04-25T10:34:41;14.50;99.90
2002;DHT22;1003;48.002;7.788;2023-04-25T10:37:13;14.20;99.90
2002;DHT22;1003;48.002;7.788;2023-04-25T10:39:41;14.30;99.90
2002;DHT22;1003;48.002;7.788;2023-04-25T10:42:09;14.20;99.90
2002;DHT22;1003;48.002;7.788;2023-04-25T10:44:37;14.10;99.90
2002;DHT22;1003;48.002;7.788;2023-04-25T10:47:07;14.60;99.90
2002;DHT22;1003;48.002;7.788;2023-04-25T10:49:36;14.30;99.90
2002;DHT22;1003;48.002;7.788;2023-04-25T10:52:26;14.30;99.90
2002;DHT22;1003;48.002;7.788;2023-04-25T10:54:56;14.10;99.90
2002;DHT22;1003;48.002;7.788;2023-04-25T10:57:32;13.30;99.90
2002;DHT22;1003;48.002;7.788;2023-04-25T11:00:13;13.40;99.90
2002;DHT22;1003;48.002;7.788;2023-04-25T11:02:42;13.90;99.90
2002;DHT22;1003;48.002;7.788;2023-04-25T11:05:22;13.70;99.90
2002;DHT22;1003;48.002;7.788;2023-04-25T11:07:57;13.10;99.90
2002;DHT22;1003;48.002;7.788;2023-04-25T11:10:26;12.80;99.90
2002;DHT22;1003;48.002;7.788;2023-04-25T11:12:53;13.30;99.90
2002;DHT22;1003;48.002;7.788;2023-04-25T11:15:20;13.60;99.90
2002;DHT22;1003;48.002;7.788;2023-04-25T11:17:47;13.80;99.90
2002;DHT22;1003;48.002;7.788;2023-04-25T11:20:15;13.30;99.90
2002;DHT22;1003;48.002;7.788;2023-04-25T11:22:46;13.90;99.90
2002;DHT22;1003;48.002;7.788;2023-04-25T11:25:16;14.20;99.90
2002;DHT22;1003;48.002;7.788;2023-04-25T11:27:50;14.30;99.90
2002;DHT22;1003;48.002;7.788;2023-04-25T11:30:18;14.30;99.90
2002;DHT22;1003;48.002;7.788;2023-04-25T11:32:47;14.80;99.90
2002;DHT22;1003;48.002;7.788;2023-04-25T11:35:14;14.10;99.90
2002;DHT22;1003;48.002;7.788;2023-04-25T11:37:43;13.20;99.90
2002;DHT22;1003;48.002;7.788;2023-04-25T11:40:11;12.50;99.90
2002;DHT22;1003;48.002;7.788;2023-04-25T11:42:44;12.20;99.90
2002;DHT22;1003;48.002;7.788;2023-04-25T11:45:12;12.00;99.90
2002;DHT22;1003;48.002;7.788;2023-04-25T11:47:41;11.90;99.90
2002;DHT22;1003;48.002;7.788;2023-04-25T11:50:09;11.90;99.90
2002;DHT22;1003;48.002;7.788;2023-04-25T11:52:38;11.90;99.90
2002;DHT22;1003;48.002;7.788;2023-04-25T11:55:08;11.90;99.90
2002;DHT22;1003;48.002;7.788;2023-04-25T11:57:39;12.10;99.90
2002;DHT22;1003;48.002;7.788;2023-04-25T12:00:10;12.40;99.90
2002;DHT22;1003;48.002;7.788;2023-04-25T12:02:42;12.60;99.90
2002;DHT22;1003;48.002;7.788;2023-04-25T12:05:12;12.70;99.90
2002;DHT22;1003;48.002;7.788;2023-04-25T12:07:40;12.80;99.90
2002;DHT22;1003;48.002;7.788;2023-04-25T12:10:10;13.10;99.90
2002;DHT22;1003;48.002;7.788;2023-04-25T12:12:42;13.20;99.90
2002;DHT22;1003;48.002;7.788;2023-04-25T12:15:12;13.40;99.90
2002;DHT22;1003;48.002;7.788;2023-04-25T12:17:44;13.40;99.90
2002;DHT22;1003;48.002;7.788;2023-04-25T12:20:14;13.20;99.90
2002;DHT22;1003;48.002;7.788;2023-04-25T12:22:43;12.80;99.90
2002;DHT22;1003;48.002;7.788;2023-04-25T12:25:12;12.50;99.90
2002;DHT22;1003;48.002;7.788;2023-04-25T12:27:41;12.70;99.90
2002;DHT22;1003;48.002;7.788;2023-04-25T12:30:10;12.90;99.90
2002;DHT22;1003;48.002;7.788;2023-04-25T12:32:37;13.50;99.90
2002;DHT22;1003;48.002;7.788;2023-04-25T12:35:05;13.80;99.90
2002;DHT22;1003;48.002;7.788;2023-04-25T12:37:33;13.80;99.90
2002;DHT22;1003;48.002;7.788;2023-04-25T12:40:00;13.80;99.90
2002;DHT22;1003;48.002;7.788;2023-04-25T12:42:27;13.80;99.90
2002;DHT22;1003;48.002;7.788;2023-04-25T12:44:55;13.30;99.90
2002;DHT22;1003;48.002;7.788;2023-04-25T12:47:26;13.00;99.90
2002;DHT22;1003;48.002;7.788;2023-04-25T12:49:53;13.20;99.90
2002;DHT22;1003;48.002;7.788;2023-04-25T12:52:20;13.50;99.90
2002;DHT22;1003;48.002;7.788;2023-04-25T12:54:47;13.70;99.90
2002;DHT22;1003;48.002;7.788;2023-04-25T12:57:14;14.10;99.90
2002;DHT22;1003;48.002;7.788;2023-04-25T12:59:41;14.20;99.90
2002;DHT22;1003;48.002;7.788;2023-04-25T13:02:10;14.40;99.90
2002;DHT22;1003;48.002;7.788;2023-04-25T13:04:37;14.20;99.90
2002;DHT22;1003;48.002;7.788;2023-04-25T13:07:04;13.80;99.90
2002;DHT22;1003;48.002;7.788;2023-04-25T13:09:31;13.80;99.90
2002;DHT22;1003;48.002;7.788;2023-04-25T13:11:59;13.90;99.90
2002;DHT22;1003;48.002;7.788;2023-04-25T13:14:26;14.60;99.90
2002;DHT22;1003;48.002;7.788;2023-04-25T13:16:53;15.00;99.90
2002;DHT22;1003;48.002;7.788;2023-04-25T13:19:22;15.30;99.90
2002;DHT22;1003;48.002;7.788;2023-04-25T13:21:49;15.20;99.90
2002;DHT22;1003;48.002;7.788;2023-04-25T13:24:16;15.40;99.90
2002;DHT22;1003;48.002;7.788;2023-04-25T13:26:43;15.80;99.90
2002;DHT22;1003;48.002;7.788;2023-04-25T13:29:11;15.70;99.90
2002;DHT22;1003;48.002;7.788;2023-04-25T13:31:38;14.70;99.90
2002;DHT22;1003;48.002;7.788;2023-04-25T13:34:05;13.80;99.90
2002;DHT22;1003;48.002;7.788;2023-04-25T13:36:33;13.30;99.90
2002;DHT22;1003;48.002;7.788;2023-04-25T13:39:00;13.20;99.90
2002;DHT22;1003;48.002;7.788;2023-04-25T13:41:29;12.70;99.90
2002;DHT22;1003;48.002;7.788;2023-04-25T13:43:56;12.10;99.90
2002;DHT22;1003;48.002;7.788;2023-04-25T13:46:23;11.90;99.90
2002;DHT22;1003;48.002;7.788;2023-04-25T13:48:50;11.60;99.90
2002;DHT22;1003;48.002;7.788;2023-04-25T13:51:18;11.60;99.90
2002;DHT22;1003;48.002;7.788;2023-04-25T13:53:47;11.70;99.90
2002;DHT22;1003;48.002;7.788;2023-04-25T13:56:14;11.60;99.90
2002;DHT22;1003;48.002;7.788;2023-04-25T13:58:41;11.80;99.90
2002;DHT22;1003;48.002;7.788;2023-04-25T14:01:08;11.70;99.90
2002;DHT22;1003;48.002;7.788;2023-04-25T14:03:35;11.70;99.90
2002;DHT22;1003;48.002;7.788;2023-04-25T14:06:03;12.00;99.90
2002;DHT22;1003;48.002;7.788;2023-04-25T14:08:30;11.90;99.90
2002;DHT22;1003;48.002;7.788;2023-04-25T14:10:58;12.10;99.90
2002;DHT22;1003;48.002;7.788;2023-04-25T14:13:26;12.20;99.90
2002;DHT22;1003;48.002;7.788;2023-04-25T14:15:53;12.40;99.90
2002;DHT22;1003;48.002;7.788;2023-04-25T14:18:20;12.50;99.90
2002;DHT22;1003;48.002;7.788;2023-04-25T14:20:47;12.60;99.90
2002;DHT22;1003;48.002;7.788;2023-04-25T14:23:14;12.60;99.90
2002;DHT22;1003;48.002;7.788;2023-04-25T14:25:43;12.80;99.90
2002;DHT22;1003;48.002;7.788;2023-04-25T14:28:11;12.90;99.90
2002;DHT22;1003;48.002;7.788;2023-04-25T14:30:38;13.00;99.90
2002;DHT22;1003;48.002;7.788;2023-04-25T14:33:06;13.20;99.90
2002;DHT22;1003;48.002;7.788;2023-04-25T14:35:33;13.30;99.90
2002;DHT22;1003;48.002;7.788;2023-04-25T14:38:00;13.30;99.90
2002;DHT22;1003;48.002;7.788;2023-04-25T14:40:27;13.50;99.90
2002;DHT22;1003;48.002;7.788;2023-04-25T14:42:54;13.70;99.90
2002;DHT22;1003;48.002;7.788;2023-04-25T14:45:23;13.30;99.90
2002;DHT22;1003;48.002;7.788;2023-04-25T14:47:50;13.00;99.90
2002;DHT22;1003;48.002;7.788;2023-04-25T14:50:17;12.80;99.90
2002;DHT22;1003;48.002;7.788;2023-04-25T14:52:44;12.70;99.90
2002;DHT22;1003;48.002;7.788;2023-04-25T14:55:12;12.80;99.90
2002;DHT22;1003;48.002;7.788;2023-04-25T14:57:39;12.50;99.90
2002;DHT22;1003;48.002;7.788;2023-04-25T15:00:07;11.90;99.90
2002;DHT22;1003;48.002;7.788;2023-04-25T15:02:40;11.10;99.90
2002;DHT22;1003;48.002;7.788;2023-04-25T15:05:08;10.50;99.90
2002;DHT22;1003;48.002;7.788;2023-04-25T15:07:35;9.80;99.90
2002;DHT22;1003;48.002;7.788;2023-04-25T15:10:02;9.40;99.90
2002;DHT22;1003;48.002;7.788;2023-04-25T15:12:31;9.00;99.90
2002;DHT22;1003;48.002;7.788;2023-04-25T15:14:58;8.80;99.90
2002;DHT22;1003;48.002;7.788;2023-04-25T15:17:25;8.70;99.90
2002;DHT22;1003;48.002;7.788;2023-04-25T15:19:57;8.70;99.90
2002;DHT22;1003;48.002;7.788;2023-04-25T15:22:25;8.80;99.90
2002;DHT22;1003;48.002;7.788;2023-04-25T15:24:52;8.70;99.90
2002;DHT22;1003;48.002;7.788;2023-04-25T15:27:20;8.60;99.90
2002;DHT22;1003;48.002;7.788;2023-04-25T15:29:47;8.60;99.90
2002;DHT22;1003;48.002;7.788;2023-04-25T15:32:14;8.60;99.90
2002;DHT22;1003;48.002;7.788;2023-04-25T15:34:41;8.70;99.90
2002;DHT22;1003;48.002;7.788;2023-04-25T15:37:10;8.80;99.90
2002;DHT22;1003;48.002;7.788;2023-04-25T15:39:37;9.00;99.90
2002;DHT22;1003;48.002;7.788;2023-04-25T15:42:04;9.30;99.90
2002;DHT22;1003;48.002;7.788;2023-04-25T15:44:32;9.30;99.90
2002;DHT22;1003;48.002;7.788;2023-04-25T15:46:59;9.30;99.90
2002;DHT22;1003;48.002;7.788;2023-04-25T15:49:26;9.30;99.90
2002;DHT22;1003;48.002;7.788;2023-04-25T15:51:54;9.40;99.90
2002;DHT22;1003;48.002;7.788;2023-04-25T15:54:23;9.40;99.90
2002;DHT22;1003;48.002;7.788;2023-04-25T15:56:50;9.40;99.90
2002;DHT22;1003;48.002;7.788;2023-04-25T15:59:17;9.50;99.90
2002;DHT22;1003;48.002;7.788;2023-04-25T16:01:44;9.60;99.90
2002;DHT22;1003;48.002;7.788;2023-04-25T16:04:11;9.60;99.90
2002;DHT22;1003;48.002;7.788;2023-04-25T16:06:38;9.70;99.90
2002;DHT22;1003;48.002;7.788;2023-04-25T16:09:06;9.70;99.90
2002;DHT22;1003;48.002;7.788;2023-04-25T16:11:36;9.90;99.90
2002;DHT22;1003;48.002;7.788;2023-04-25T16:14:03;10.00;99.90
2002;DHT22;1003;48.002;7.788;2023-04-25T16:16:30;9.90;99.90